sensor_id;sensor_type;location;lat;lon;timestamp;temperature;humidity
44723;DHT22;30451;48.638;10.624;2023-02-15T00:01:56;21.90;47.20
44723;DHT22;30451;48.638;10.624;2023-02-15T00:04:24;21.90;47.20
44723;DHT22;30451;48.638;10.624;2023-02-15T00:07:10;21.80;47.20
44723;DHT22;30451;48.638;10.624;2023-02-15T00:09:35;21.80;47.20
44723;DHT22;30451;48.638;10.624;2023-02-15T00:12:01;21.70;47.20
44723;DHT22;30451;48.638;10.624;2023-02-15T00:14:27;21.70;47.30
44723;DHT22;30451;48.638;10.624;2023-02-15T00:16:52;21.70;47.30
44723;DHT22;30451;48.638;10.624;2023-02-15T00:19:20;21.70;47.40
44723;DHT22;30451;48.638;10.624;2023-02-15T00:21:47;21.70;47.50
44723;DHT22;30451;48.638;10.624;2023-02-15T00:24:15;21.60;47.40
44723;DHT22;30451;48.638;10.624;2023-02-15T00:26:42;21.60;47.50
44723;DHT22;30451;48.638;10.624;2023-02-15T00:29:09;21.50;47.50
44723;DHT22;30451;48.638;10.624;2023-02-15T00:31:35;21.50;47.60
44723;DHT22;30451;48.638;10.624;2023-02-15T00:34:05;21.50;47.60
44723;DHT22;30451;48.638;10.624;2023-02-15T00:36:31;21.50;47.70
44723;DHT22;30451;48.638;10.624;2023-02-15T00:38:56;21.40;47.60
44723;DHT22;30451;48.638;10.624;2023-02-15T00:41:22;21.40;47.70
44723;DHT22;30451;48.638;10.624;2023-02-15T00:43:47;21.40;47.80
44723;DHT22;30451;48.638;10.624;2023-02-15T00:46:13;21.40;47.80
44723;DHT22;30451;48.638;10.624;2023-02-15T00:48:39;21.30;47.80
44723;DHT22;30451;48.638;10.624;2023-02-15T00:51:04;21.30;47.80
44723;DHT22;30451;48.638;10.624;2023-02-15T00:53:30;21.30;47.90
44723;DHT22;30451;48.638;10.624;2023-02-15T00:55:57;21.20;47.80
44723;DHT22;30451;48.638;10.624;2023-02-15T00:58:23;21.20;47.90
44723;DHT22;30451;48.638;10.624;2023-02-15T01:00:48;21.20;48.00
44723;DHT22;30451;48.638;10.624;2023-02-15T01:03:16;21.20;48.00
44723;DHT22;30451;48.638;10.624;2023-02-15T01:05:42;21.10;48.00
44723;DHT22;30451;48.638;10.624;2023-02-15T01:08:08;21.10;48.00
44723;DHT22;30451;48.638;10.624;2023-02-15T01:10:35;21.10;48.10
44723;DHT22;30451;48.638;10.624;2023-02-15T01:13:01;21.10;48.00
44723;DHT22;30451;48.638;10.624;2023-02-15T01:15:27;21.10;48.10
44723;DHT22;30451;48.638;10.624;2023-02-15T01:17:53;21.00;48.10
44723;DHT22;30451;48.638;10.624;2023-02-15T01:20:24;21.00;48.10
44723;DHT22;30451;48.638;10.624;2023-02-15T01:22:50;21.00;48.20
44723;DHT22;30451;48.638;10.624;2023-02-15T01:25:17;21.00;48.20
44723;DHT22;30451;48.638;10.624;2023-02-15T01:27:43;20.90;48.20
44723;DHT22;30451;48.638;10.624;2023-02-15T01:30:09;20.90;48.30
44723;DHT22;30451;48.638;10.624;2023-02-15T01:32:35;20.90;48.30
44723;DHT22;30451;48.638;10.624;2023-02-15T01:35:01;20.80;48.30
44723;DHT22;30451;48.638;10.624;2023-02-15T01:37:30;20.80;48.30
44723;DHT22;30451;48.638;10.624;2023-02-15T01:39:56;20.80;48.40
44723;DHT22;30451;48.638;10.624;2023-02-15T01:42:23;20.80;48.50
44723;DHT22;30451;48.638;10.624;2023-02-15T01:44:59;20.80;48.50
44723;DHT22;30451;48.638;10.624;2023-02-15T01:47:41;20.70;48.50
44723;DHT22;30451;48.638;10.624;2023-02-15T01:52:48;20.70;48.60
44723;DHT22;30451;48.638;10.624;2023-02-15T01:55:15;20.70;48.60
44723;DHT22;30451;48.638;10.624;2023-02-15T01:57:42;20.60;48.60
44723;DHT22;30451;48.638;10.624;2023-02-15T02:00:09;20.60;48.60
44723;DHT22;30451;48.638;10.624;2023-02-15T02:02:35;20.60;48.70
44723;DHT22;30451;48.638;10.624;2023-02-15T02:05:03;20.60;48.70
44723;DHT22;30451;48.638;10.624;2023-02-15T02:07:34;20.50;48.70
44723;DHT22;30451;48.638;10.624;2023-02-15T02:10:03;20.50;48.70
44723;DHT22;30451;48.638;10.624;2023-02-15T02:12:29;20.50;48.70
44723;DHT22;30451;48.638;10.624;2023-02-15T02:14:56;20.50;48.80
44723;DHT22;30451;48.638;10.624;2023-02-15T02:31:16;20.40;48.90
44723;DHT22;30451;48.638;10.624;2023-02-15T02:36:58;20.40;49.00
44723;DHT22;30451;48.638;10.624;2023-02-15T02:39:33;20.30;48.90
44723;DHT22;30451;48.638;10.624;2023-02-15T02:42:17;20.30;48.90
44723;DHT22;30451;48.638;10.624;2023-02-15T02:44:47;20.30;49.00
44723;DHT22;30451;48.638;10.624;2023-02-15T02:47:30;20.30;49.00
44723;DHT22;30451;48.638;10.624;2023-02-15T02:50:00;20.30;49.00
44723;DHT22;30451;48.638;10.624;2023-02-15T02:55:34;20.30;49.10
44723;DHT22;30451;48.638;10.624;2023-02-15T03:00:36;20.30;49.10
44723;DHT22;30451;48.638;10.624;2023-02-15T03:03:09;20.20;49.60
44723;DHT22;30451;48.638;10.624;2023-02-15T03:05:39;20.20;49.10
44723;DHT22;30451;48.638;10.624;2023-02-15T03:08:07;20.20;49.10
44723;DHT22;30451;48.638;10.624;2023-02-15T03:10:37;20.20;49.60
44723;DHT22;30451;48.638;10.624;2023-02-15T03:13:03;20.20;49.10
44723;DHT22;30451;48.638;10.624;2023-02-15T03:15:32;20.20;49.10
44723;DHT22;30451;48.638;10.624;2023-02-15T03:18:21;20.20;49.10
44723;DHT22;30451;48.638;10.624;2023-02-15T03:20:49;20.20;49.10
44723;DHT22;30451;48.638;10.624;2023-02-15T03:23:22;20.20;49.20
44723;DHT22;30451;48.638;10.624;2023-02-15T03:25:52;20.10;49.10
44723;DHT22;30451;48.638;10.624;2023-02-15T03:28:25;20.20;49.20
44723;DHT22;30451;48.638;10.624;2023-02-15T03:30:55;20.20;49.20
44723;DHT22;30451;48.638;10.624;2023-02-15T03:33:23;20.10;49.10
44723;DHT22;30451;48.638;10.624;2023-02-15T03:36:00;20.10;49.20
44723;DHT22;30451;48.638;10.624;2023-02-15T03:38:43;20.10;49.20
44723;DHT22;30451;48.638;10.624;2023-02-15T03:41:11;20.10;49.20
44723;DHT22;30451;48.638;10.624;2023-02-15T03:44:06;20.10;49.20
44723;DHT22;30451;48.638;10.624;2023-02-15T03:46:49;20.10;49.40
44723;DHT22;30451;48.638;10.624;2023-02-15T03:49:26;20.10;49.20
44723;DHT22;30451;48.638;10.624;2023-02-15T03:51:55;20.00;49.10
44723;DHT22;30451;48.638;10.624;2023-02-15T03:54:25;20.10;49.20
44723;DHT22;30451;48.638;10.624;2023-02-15T03:57:21;20.10;49.30
44723;DHT22;30451;48.638;10.624;2023-02-15T04:00:18;20.00;49.20
44723;DHT22;30451;48.638;10.624;2023-02-15T04:05:28;20.00;49.20
44723;DHT22;30451;48.638;10.624;2023-02-15T04:07:54;20.00;49.30
44723;DHT22;30451;48.638;10.624;2023-02-15T04:10:19;20.00;49.30
44723;DHT22;30451;48.638;10.624;2023-02-15T04:13:03;20.00;49.30
44723;DHT22;30451;48.638;10.624;2023-02-15T04:15:29;20.00;49.40
44723;DHT22;30451;48.638;10.624;2023-02-15T04:18:13;20.00;49.30
44723;DHT22;30451;48.638;10.624;2023-02-15T04:20:40;20.00;49.90
44723;DHT22;30451;48.638;10.624;2023-02-15T04:23:26;19.90;49.30
44723;DHT22;30451;48.638;10.624;2023-02-15T04:26:10;19.90;49.40
44723;DHT22;30451;48.638;10.624;2023-02-15T04:28:36;19.90;49.40
44723;DHT22;30451;48.638;10.624;2023-02-15T04:31:01;19.90;49.40
44723;DHT22;30451;48.638;10.624;2023-02-15T04:33:27;19.90;49.40
44723;DHT22;30451;48.638;10.624;2023-02-15T04:35:52;19.90;49.40
44723;DHT22;30451;48.638;10.624;2023-02-15T04:38:18;19.90;49.40
44723;DHT22;30451;48.638;10.624;2023-02-15T04:40:44;19.90;49.40
44723;DHT22;30451;48.638;10.624;2023-02-15T04:43:09;19.90;49.50
44723;DHT22;30451;48.638;10.624;2023-02-15T04:45:35;19.90;49.50
44723;DHT22;30451;48.638;10.624;2023-02-15T04:48:00;19.90;49.50
44723;DHT22;30451;48.638;10.624;2023-02-15T04:50:26;19.80;49.50
44723;DHT22;30451;48.638;10.624;2023-02-15T04:52:51;19.80;49.50
44723;DHT22;30451;48.638;10.624;2023-02-15T04:55:17;19.80;49.50
44723;DHT22;30451;48.638;10.624;2023-02-15T04:57:43;19.80;49.50
44723;DHT22;30451;48.638;10.624;2023-02-15T05:00:09;19.90;49.60
44723;DHT22;30451;48.638;10.624;2023-02-15T05:02:34;19.80;49.60
44723;DHT22;30451;48.638;10.624;2023-02-15T05:05:00;19.70;49.60
44723;DHT22;30451;48.638;10.624;2023-02-15T05:07:25;19.80;49.70
44723;DHT22;30451;48.638;10.624;2023-02-15T05:09:51;19.80;49.80
44723;DHT22;30451;48.638;10.624;2023-02-15T05:12:17;19.80;49.90
44723;DHT22;30451;48.638;10.624;2023-02-15T05:14:42;19.80;49.90
44723;DHT22;30451;48.638;10.624;2023-02-15T05:17:08;19.70;49.90
44723;DHT22;30451;48.638;10.624;2023-02-15T05:19:33;19.70;50.00
44723;DHT22;30451;48.638;10.624;2023-02-15T05:21:59;19.70;50.00
44723;DHT22;30451;48.638;10.624;2023-02-15T05:24:24;19.70;50.00
44723;DHT22;30451;48.638;10.624;2023-02-15T05:27:11;19.70;50.00
44723;DHT22;30451;48.638;10.624;2023-02-15T05:29:55;19.70;50.00
44723;DHT22;30451;48.638;10.624;2023-02-15T05:32:21;19.70;50.10
44723;DHT22;30451;48.638;10.624;2023-02-15T05:34:46;19.70;50.10
44723;DHT22;30451;48.638;10.624;2023-02-15T05:37:12;19.70;50.10
44723;DHT22;30451;48.638;10.624;2023-02-15T05:39:37;19.70;50.10
44723;DHT22;30451;48.638;10.624;2023-02-15T05:42:03;19.70;50.10
44723;DHT22;30451;48.638;10.624;2023-02-15T05:44:29;19.70;50.10
44723;DHT22;30451;48.638;10.624;2023-02-15T05:46:55;19.70;50.70
44723;DHT22;30451;48.638;10.624;2023-02-15T05:49:20;19.70;50.30
44723;DHT22;30451;48.638;10.624;2023-02-15T05:51:46;19.70;50.30
44723;DHT22;30451;48.638;10.624;2023-02-15T05:54:11;19.60;50.30
44723;DHT22;30451;48.638;10.624;2023-02-15T05:56:37;19.70;50.40
44723;DHT22;30451;48.638;10.624;2023-02-15T05:59:03;19.60;50.30
44723;DHT22;30451;48.638;10.624;2023-02-15T06:01:28;19.60;50.30
44723;DHT22;30451;48.638;10.624;2023-02-15T06:03:54;19.60;50.30
44723;DHT22;30451;48.638;10.624;2023-02-15T06:06:21;19.70;50.40
44723;DHT22;30451;48.638;10.624;2023-02-15T06:08:46;19.60;50.30
44723;DHT22;30451;48.638;10.624;2023-02-15T06:11:12;19.60;50.40
44723;DHT22;30451;48.638;10.624;2023-02-15T06:13:38;19.60;50.40
44723;DHT22;30451;48.638;10.624;2023-02-15T06:16:04;19.60;50.40
44723;DHT22;30451;48.638;10.624;2023-02-15T06:18:29;19.60;50.40
44723;DHT22;30451;48.638;10.624;2023-02-15T06:20:55;19.60;50.40
44723;DHT22;30451;48.638;10.624;2023-02-15T06:23:20;19.70;51.40
44723;DHT22;30451;48.638;10.624;2023-02-15T06:25:46;19.80;51.50
44723;DHT22;30451;48.638;10.624;2023-02-15T06:28:12;19.90;51.50
44723;DHT22;30451;48.638;10.624;2023-02-15T06:30:38;20.00;51.20
44723;DHT22;30451;48.638;10.624;2023-02-15T06:33:03;20.10;51.10
44723;DHT22;30451;48.638;10.624;2023-02-15T06:35:29;20.20;50.90
44723;DHT22;30451;48.638;10.624;2023-02-15T06:37:55;20.30;50.70
44723;DHT22;30451;48.638;10.624;2023-02-15T06:40:20;20.50;50.60
44723;DHT22;30451;48.638;10.624;2023-02-15T06:42:46;20.60;50.60
44723;DHT22;30451;48.638;10.624;2023-02-15T06:45:12;20.70;50.60
44723;DHT22;30451;48.638;10.624;2023-02-15T06:47:38;20.80;51.00
44723;DHT22;30451;48.638;10.624;2023-02-15T06:50:05;20.90;50.40
44723;DHT22;30451;48.638;10.624;2023-02-15T06:52:30;21.00;50.30
44723;DHT22;30451;48.638;10.624;2023-02-15T06:54:56;21.10;50.10
44723;DHT22;30451;48.638;10.624;2023-02-15T06:57:22;21.20;50.00
44723;DHT22;30451;48.638;10.624;2023-02-15T06:59:47;21.40;49.80
44723;DHT22;30451;48.638;10.624;2023-02-15T07:02:13;21.50;49.50
44723;DHT22;30451;48.638;10.624;2023-02-15T07:04:39;21.60;49.20
44723;DHT22;30451;48.638;10.624;2023-02-15T07:07:08;21.80;49.30
44723;DHT22;30451;48.638;10.624;2023-02-15T07:09:34;21.90;49.00
44723;DHT22;30451;48.638;10.624;2023-02-15T07:11:59;22.10;48.70
44723;DHT22;30451;48.638;10.624;2023-02-15T07:14:44;22.20;48.30
44723;DHT22;30451;48.638;10.624;2023-02-15T07:17:09;22.30;48.10
44723;DHT22;30451;48.638;10.624;2023-02-15T07:19:35;22.40;47.70
44723;DHT22;30451;48.638;10.624;2023-02-15T07:22:00;22.50;47.50
44723;DHT22;30451;48.638;10.624;2023-02-15T07:24:26;22.50;47.40
44723;DHT22;30451;48.638;10.624;2023-02-15T07:26:52;22.50;47.40
44723;DHT22;30451;48.638;10.624;2023-02-15T07:29:17;22.50;47.20
44723;DHT22;30451;48.638;10.624;2023-02-15T07:31:43;22.60;47.30
44723;DHT22;30451;48.638;10.624;2023-02-15T07:34:10;22.60;47.30
44723;DHT22;30451;48.638;10.624;2023-02-15T07:36:36;22.60;47.20
44723;DHT22;30451;48.638;10.624;2023-02-15T07:39:02;22.60;47.10
44723;DHT22;30451;48.638;10.624;2023-02-15T07:41:28;22.60;47.10
44723;DHT22;30451;48.638;10.624;2023-02-15T07:43:53;22.60;47.10
44723;DHT22;30451;48.638;10.624;2023-02-15T07:46:19;22.60;47.10
44723;DHT22;30451;48.638;10.624;2023-02-15T07:48:46;22.70;47.20
44723;DHT22;30451;48.638;10.624;2023-02-15T07:51:12;22.60;47.10
44723;DHT22;30451;48.638;10.624;2023-02-15T07:53:40;22.60;47.30
44723;DHT22;30451;48.638;10.624;2023-02-15T07:56:13;22.70;47.30
44723;DHT22;30451;48.638;10.624;2023-02-15T07:58:39;22.70;47.30
44723;DHT22;30451;48.638;10.624;2023-02-15T08:03:46;22.70;47.30
44723;DHT22;30451;48.638;10.624;2023-02-15T08:06:12;22.60;47.30
44723;DHT22;30451;48.638;10.624;2023-02-15T08:08:39;22.60;47.80
44723;DHT22;30451;48.638;10.624;2023-02-15T08:11:17;22.60;47.20
44723;DHT22;30451;48.638;10.624;2023-02-15T08:14:00;22.60;47.20
44723;DHT22;30451;48.638;10.624;2023-02-15T08:19:24;22.70;47.20
44723;DHT22;30451;48.638;10.624;2023-02-15T08:24:20;22.70;47.30
44723;DHT22;30451;48.638;10.624;2023-02-15T08:26:47;22.70;47.30
44723;DHT22;30451;48.638;10.624;2023-02-15T08:29:18;22.70;47.20
44723;DHT22;30451;48.638;10.624;2023-02-15T08:31:44;22.70;47.20
44723;DHT22;30451;48.638;10.624;2023-02-15T08:34:11;22.70;47.20
44723;DHT22;30451;48.638;10.624;2023-02-15T08:36:38;22.70;47.70
44723;DHT22;30451;48.638;10.624;2023-02-15T08:39:06;22.70;47.10
44723;DHT22;30451;48.638;10.624;2023-02-15T08:41:36;22.70;47.10
44723;DHT22;30451;48.638;10.624;2023-02-15T08:44:05;22.70;47.00
44723;DHT22;30451;48.638;10.624;2023-02-15T08:46:33;22.70;47.00
44723;DHT22;30451;48.638;10.624;2023-02-15T08:48:59;22.70;47.10
44723;DHT22;30451;48.638;10.624;2023-02-15T08:51:30;22.70;47.10
44723;DHT22;30451;48.638;10.624;2023-02-15T08:53:58;22.70;47.10
44723;DHT22;30451;48.638;10.624;2023-02-15T08:56:28;22.70;47.60
44723;DHT22;30451;48.638;10.624;2023-02-15T08:58:54;22.70;47.10
44723;DHT22;30451;48.638;10.624;2023-02-15T09:01:23;22.60;47.00
44723;DHT22;30451;48.638;10.624;2023-02-15T09:03:51;22.70;47.10
44723;DHT22;30451;48.638;10.624;2023-02-15T09:06:21;22.70;47.10
44723;DHT22;30451;48.638;10.624;2023-02-15T09:08:47;22.60;47.00
44723;DHT22;30451;48.638;10.624;2023-02-15T09:11:21;22.60;47.00
44723;DHT22;30451;48.638;10.624;2023-02-15T09:13:59;22.60;47.00
44723;DHT22;30451;48.638;10.624;2023-02-15T09:16:28;22.60;47.10
44723;DHT22;30451;48.638;10.624;2023-02-15T09:18:54;22.60;47.10
44723;DHT22;30451;48.638;10.624;2023-02-15T09:21:22;22.60;47.00
44723;DHT22;30451;48.638;10.624;2023-02-15T09:23:49;22.60;47.10
44723;DHT22;30451;48.638;10.624;2023-02-15T09:26:20;22.60;47.10
44723;DHT22;30451;48.638;10.624;2023-02-15T09:28:46;22.50;47.10
44723;DHT22;30451;48.638;10.624;2023-02-15T09:31:19;22.50;47.10
44723;DHT22;30451;48.638;10.624;2023-02-15T09:33:46;22.50;47.20
44723;DHT22;30451;48.638;10.624;2023-02-15T09:36:16;22.50;47.30
44723;DHT22;30451;48.638;10.624;2023-02-15T09:38:42;22.50;47.30
44723;DHT22;30451;48.638;10.624;2023-02-15T09:56:14;22.50;47.10
44723;DHT22;30451;48.638;10.624;2023-02-15T10:01:46;22.50;47.20
44723;DHT22;30451;48.638;10.624;2023-02-15T10:10:19;22.40;47.20
44723;DHT22;30451;48.638;10.624;2023-02-15T10:15:49;22.40;47.20
44723;DHT22;30451;48.638;10.624;2023-02-15T10:21:35;22.40;47.50
44723;DHT22;30451;48.638;10.624;2023-02-15T10:26:45;22.50;46.20
44723;DHT22;30451;48.638;10.624;2023-02-15T10:34:38;22.50;45.60
44723;DHT22;30451;48.638;10.624;2023-02-15T10:45:31;23.00;46.10
44723;DHT22;30451;48.638;10.624;2023-02-15T10:51:03;23.20;46.50
44723;DHT22;30451;48.638;10.624;2023-02-15T10:53:53;23.20;47.00
44723;DHT22;30451;48.638;10.624;2023-02-15T10:56:49;23.30;47.10
44723;DHT22;30451;48.638;10.624;2023-02-15T10:59:37;23.40;47.20
44723;DHT22;30451;48.638;10.624;2023-02-15T11:07:56;23.80;47.50
44723;DHT22;30451;48.638;10.624;2023-02-15T11:10:34;23.90;47.50
44723;DHT22;30451;48.638;10.624;2023-02-15T11:13:09;24.10;47.40
44723;DHT22;30451;48.638;10.624;2023-02-15T11:15:41;24.30;47.40
44723;DHT22;30451;48.638;10.624;2023-02-15T11:23:21;24.50;47.30
44723;DHT22;30451;48.638;10.624;2023-02-15T11:26:00;24.50;47.80
44723;DHT22;30451;48.638;10.624;2023-02-15T11:28:33;24.60;47.50
44723;DHT22;30451;48.638;10.624;2023-02-15T11:31:10;24.90;47.20
44723;DHT22;30451;48.638;10.624;2023-02-15T11:33:39;25.10;46.90
44723;DHT22;30451;48.638;10.624;2023-02-15T11:36:15;25.00;46.90
44723;DHT22;30451;48.638;10.624;2023-02-15T11:38:42;24.90;47.10
44723;DHT22;30451;48.638;10.624;2023-02-15T11:41:16;24.90;45.10
44723;DHT22;30451;48.638;10.624;2023-02-15T11:46:25;24.70;42.30
44723;DHT22;30451;48.638;10.624;2023-02-15T11:48:51;24.60;43.10
44723;DHT22;30451;48.638;10.624;2023-02-15T11:51:18;24.60;43.50
44723;DHT22;30451;48.638;10.624;2023-02-15T11:53:47;24.50;43.70
44723;DHT22;30451;48.638;10.624;2023-02-15T11:56:15;24.50;43.90
44723;DHT22;30451;48.638;10.624;2023-02-15T11:58:48;24.50;44.10
44723;DHT22;30451;48.638;10.624;2023-02-15T12:03:55;24.40;44.20
44723;DHT22;30451;48.638;10.624;2023-02-15T12:06:32;24.40;44.30
44723;DHT22;30451;48.638;10.624;2023-02-15T12:09:20;24.40;44.30
44723;DHT22;30451;48.638;10.624;2023-02-15T12:11:47;24.30;44.30
44723;DHT22;30451;48.638;10.624;2023-02-15T12:14:13;24.30;44.50
44723;DHT22;30451;48.638;10.624;2023-02-15T12:16:51;24.30;44.50
44723;DHT22;30451;48.638;10.624;2023-02-15T12:19:33;24.30;44.50
44723;DHT22;30451;48.638;10.624;2023-02-15T12:22:03;24.30;44.60
44723;DHT22;30451;48.638;10.624;2023-02-15T12:24:36;24.30;44.60
44723;DHT22;30451;48.638;10.624;2023-02-15T12:27:06;24.30;44.70
44723;DHT22;30451;48.638;10.624;2023-02-15T12:29:47;24.30;44.70
44723;DHT22;30451;48.638;10.624;2023-02-15T12:32:25;24.30;44.80
44723;DHT22;30451;48.638;10.624;2023-02-15T12:34:54;24.20;44.80
44723;DHT22;30451;48.638;10.624;2023-02-15T12:37:23;24.20;44.90
44723;DHT22;30451;48.638;10.624;2023-02-15T12:39:59;24.20;44.90
44723;DHT22;30451;48.638;10.624;2023-02-15T12:42:27;24.20;45.50
44723;DHT22;30451;48.638;10.624;2023-02-15T12:44:55;24.20;45.10
44723;DHT22;30451;48.638;10.624;2023-02-15T12:47:21;24.20;44.90
44723;DHT22;30451;48.638;10.624;2023-02-15T12:50:23;24.10;45.50
44723;DHT22;30451;48.638;10.624;2023-02-15T12:53:07;24.10;45.70
44723;DHT22;30451;48.638;10.624;2023-02-15T12:55:33;24.20;45.30
44723;DHT22;30451;48.638;10.624;2023-02-15T13:00:31;24.10;45.50
44723;DHT22;30451;48.638;10.624;2023-02-15T13:02:58;24.10;45.50
44723;DHT22;30451;48.638;10.624;2023-02-15T13:05:37;24.10;45.60
44723;DHT22;30451;48.638;10.624;2023-02-15T13:08:08;24.10;45.50
44723;DHT22;30451;48.638;10.624;2023-02-15T13:10:51;24.10;45.50
44723;DHT22;30451;48.638;10.624;2023-02-15T13:13:19;24.10;46.00
44723;DHT22;30451;48.638;10.624;2023-02-15T13:15:50;24.10;45.90
44723;DHT22;30451;48.638;10.624;2023-02-15T13:18:23;24.10;46.10
44723;DHT22;30451;48.638;10.624;2023-02-15T13:20:52;24.10;46.10
44723;DHT22;30451;48.638;10.624;2023-02-15T13:23:36;24.10;46.30
44723;DHT22;30451;48.638;10.624;2023-02-15T13:26:04;24.10;46.10
44723;DHT22;30451;48.638;10.624;2023-02-15T13:28:44;24.10;45.90
44723;DHT22;30451;48.638;10.624;2023-02-15T13:31:22;24.10;47.10
44723;DHT22;30451;48.638;10.624;2023-02-15T13:33:52;24.10;46.70
44723;DHT22;30451;48.638;10.624;2023-02-15T13:36:33;24.10;46.80
44723;DHT22;30451;48.638;10.624;2023-02-15T13:44:24;24.10;44.80
44723;DHT22;30451;48.638;10.624;2023-02-15T13:46:56;24.10;45.00
44723;DHT22;30451;48.638;10.624;2023-02-15T13:52:27;24.00;45.50
44723;DHT22;30451;48.638;10.624;2023-02-15T14:00:36;24.10;46.80
44723;DHT22;30451;48.638;10.624;2023-02-15T14:03:35;24.10;47.10
44723;DHT22;30451;48.638;10.624;2023-02-15T14:06:39;24.10;47.10
44723;DHT22;30451;48.638;10.624;2023-02-15T14:12:43;24.10;47.50
44723;DHT22;30451;48.638;10.624;2023-02-15T14:23:36;24.20;49.00
44723;DHT22;30451;48.638;10.624;2023-02-15T14:31:40;24.20;49.80
44723;DHT22;30451;48.638;10.624;2023-02-15T14:34:24;24.20;49.70
44723;DHT22;30451;48.638;10.624;2023-02-15T14:36:53;24.30;49.70
44723;DHT22;30451;48.638;10.624;2023-02-15T14:45:22;24.30;49.60
44723;DHT22;30451;48.638;10.624;2023-02-15T14:48:03;24.30;49.80
44723;DHT22;30451;48.638;10.624;2023-02-15T14:50:44;24.30;49.80
44723;DHT22;30451;48.638;10.624;2023-02-15T14:56:20;24.40;50.00
44723;DHT22;30451;48.638;10.624;2023-02-15T15:03:57;24.30;50.40
44723;DHT22;30451;48.638;10.624;2023-02-15T15:06:26;24.40;50.00
44723;DHT22;30451;48.638;10.624;2023-02-15T15:08:55;24.40;49.90
44723;DHT22;30451;48.638;10.624;2023-02-15T15:13:57;24.40;50.10
44723;DHT22;30451;48.638;10.624;2023-02-15T15:19:09;24.40;50.40
44723;DHT22;30451;48.638;10.624;2023-02-15T15:22:02;24.50;50.40
44723;DHT22;30451;48.638;10.624;2023-02-15T15:38:43;24.50;50.40
44723;DHT22;30451;48.638;10.624;2023-02-15T15:49:19;24.60;50.50
44723;DHT22;30451;48.638;10.624;2023-02-15T15:51:46;24.60;51.10
44723;DHT22;30451;48.638;10.624;2023-02-15T15:54:23;24.60;50.50
44723;DHT22;30451;48.638;10.624;2023-02-15T15:57:19;24.60;50.60
44723;DHT22;30451;48.638;10.624;2023-02-15T15:59:45;24.60;50.90
44723;DHT22;30451;48.638;10.624;2023-02-15T16:02:14;24.60;50.90
44723;DHT22;30451;48.638;10.624;2023-02-15T16:04:44;24.70;51.20
44723;DHT22;30451;48.638;10.624;2023-02-15T16:09:57;24.70;51.20
44723;DHT22;30451;48.638;10.624;2023-02-15T16:12:23;24.70;51.10
44723;DHT22;30451;48.638;10.624;2023-02-15T16:14:50;24.70;51.20
44723;DHT22;30451;48.638;10.624;2023-02-15T16:17:22;24.70;51.20
44723;DHT22;30451;48.638;10.624;2023-02-15T16:19:48;24.70;51.30
44723;DHT22;30451;48.638;10.624;2023-02-15T16:22:23;24.70;50.60
44723;DHT22;30451;48.638;10.624;2023-02-15T16:29:45;24.50;47.40
44723;DHT22;30451;48.638;10.624;2023-02-15T16:32:25;24.50;47.10
44723;DHT22;30451;48.638;10.624;2023-02-15T16:34:58;24.50;46.70
44723;DHT22;30451;48.638;10.624;2023-02-15T16:37:25;24.40;46.40
44723;DHT22;30451;48.638;10.624;2023-02-15T16:39:56;24.30;46.30
44723;DHT22;30451;48.638;10.624;2023-02-15T16:42:22;24.30;46.20
44723;DHT22;30451;48.638;10.624;2023-02-15T16:44:53;24.30;46.60
44723;DHT22;30451;48.638;10.624;2023-02-15T16:47:26;24.30;45.60
44723;DHT22;30451;48.638;10.624;2023-02-15T16:49:56;24.20;44.50
44723;DHT22;30451;48.638;10.624;2023-02-15T16:52:24;24.20;44.10
44723;DHT22;30451;48.638;10.624;2023-02-15T16:55:20;24.10;44.00
44723;DHT22;30451;48.638;10.624;2023-02-15T16:57:47;24.10;44.10
44723;DHT22;30451;48.638;10.624;2023-02-15T17:00:24;24.10;44.20
44723;DHT22;30451;48.638;10.624;2023-02-15T17:05:41;23.90;44.10
44723;DHT22;30451;48.638;10.624;2023-02-15T17:10:45;23.90;44.40
44723;DHT22;30451;48.638;10.624;2023-02-15T17:13:15;23.90;44.60
44723;DHT22;30451;48.638;10.624;2023-02-15T17:18:39;23.80;44.50
44723;DHT22;30451;48.638;10.624;2023-02-15T17:21:12;23.80;44.60
44723;DHT22;30451;48.638;10.624;2023-02-15T17:23:59;23.70;44.50
44723;DHT22;30451;48.638;10.624;2023-02-15T17:26:34;23.80;44.50
44723;DHT22;30451;48.638;10.624;2023-02-15T17:31:57;23.70;44.40
44723;DHT22;30451;48.638;10.624;2023-02-15T17:39:51;23.70;44.60
44723;DHT22;30451;48.638;10.624;2023-02-15T17:42:17;23.70;44.50
44723;DHT22;30451;48.638;10.624;2023-02-15T17:44:42;23.70;44.40
44723;DHT22;30451;48.638;10.624;2023-02-15T17:47:16;23.60;44.40
44723;DHT22;30451;48.638;10.624;2023-02-15T17:49:43;23.60;44.40
44723;DHT22;30451;48.638;10.624;2023-02-15T17:52:13;23.60;44.50
44723;DHT22;30451;48.638;10.624;2023-02-15T17:54:40;23.60;44.70
44723;DHT22;30451;48.638;10.624;2023-02-15T17:57:24;23.60;44.60
44723;DHT22;30451;48.638;10.624;2023-02-15T17:59:51;23.50;44.50
44723;DHT22;30451;48.638;10.624;2023-02-15T18:02:35;23.50;44.50
44723;DHT22;30451;48.638;10.624;2023-02-15T18:05:20;23.50;44.50
44723;DHT22;30451;48.638;10.624;2023-02-15T18:08:12;23.40;44.40
44723;DHT22;30451;48.638;10.624;2023-02-15T18:10:57;23.40;44.50
44723;DHT22;30451;48.638;10.624;2023-02-15T18:13:41;23.40;45.00
44723;DHT22;30451;48.638;10.624;2023-02-15T18:16:12;23.30;44.50
44723;DHT22;30451;48.638;10.624;2023-02-15T18:18:38;23.30;44.60
44723;DHT22;30451;48.638;10.624;2023-02-15T18:21:04;23.30;44.70
44723;DHT22;30451;48.638;10.624;2023-02-15T18:23:32;23.30;44.70
44723;DHT22;30451;48.638;10.624;2023-02-15T18:25:58;23.20;44.70
44723;DHT22;30451;48.638;10.624;2023-02-15T18:28:23;23.20;44.70
44723;DHT22;30451;48.638;10.624;2023-02-15T18:30:49;23.20;44.80
44723;DHT22;30451;48.638;10.624;2023-02-15T18:35:52;23.20;44.90
44723;DHT22;30451;48.638;10.624;2023-02-15T18:38:18;23.10;44.90
44723;DHT22;30451;48.638;10.624;2023-02-15T18:40:44;23.10;44.90
44723;DHT22;30451;48.638;10.624;2023-02-15T18:43:11;23.00;45.00
44723;DHT22;30451;48.638;10.624;2023-02-15T18:45:37;23.00;44.90
44723;DHT22;30451;48.638;10.624;2023-02-15T18:48:04;23.00;45.00
44723;DHT22;30451;48.638;10.624;2023-02-15T18:50:33;23.00;45.10
44723;DHT22;30451;48.638;10.624;2023-02-15T18:53:02;22.90;45.60
44723;DHT22;30451;48.638;10.624;2023-02-15T18:55:28;22.90;45.20
44723;DHT22;30451;48.638;10.624;2023-02-15T18:57:57;22.90;45.30
44723;DHT22;30451;48.638;10.624;2023-02-15T19:00:27;22.90;45.30